createdAt,value
2019-03-30T00:01:19.402Z,11.00
2019-03-30T00:03:50.411Z,10.77
2019-03-30T00:06:21.161Z,10.50
2019-03-30T00:08:52.507Z,10.90
2019-03-30T00:11:22.901Z,11.30
2019-03-30T00:13:54.222Z,11.77
2019-03-30T00:16:24.355Z,11.13
2019-03-30T00:18:56.812Z,10.60
2019-03-30T00:21:27.099Z,11.03
2019-03-30T00:23:57.167Z,10.93
2019-03-30T00:26:29.182Z,11.43
2019-03-30T00:29:04.263Z,10.77
2019-03-30T00:31:35.090Z,10.57
2019-03-30T00:34:08.371Z,10.33
2019-03-30T00:36:38.760Z,10.63
2019-03-30T00:39:09.597Z,10.60
2019-03-30T00:41:40.107Z,10.50
2019-03-30T00:44:10.649Z,10.27
2019-03-30T00:46:40.986Z,10.93
2019-03-30T00:49:11.533Z,9.70
2019-03-30T00:51:41.575Z,10.63
2019-03-30T00:54:13.121Z,9.97
2019-03-30T00:56:45.397Z,12.30
2019-03-30T00:59:15.646Z,11.03
2019-03-30T01:01:46.910Z,10.80
2019-03-30T01:04:18.463Z,9.87
2019-03-30T01:06:48.746Z,10.50
2019-03-30T01:09:18.818Z,10.17
2019-03-30T01:11:49.584Z,10.40
2019-03-30T01:14:21.648Z,9.30
2019-03-30T01:16:51.843Z,8.60
2019-03-30T01:19:25.148Z,9.63
2019-03-30T01:21:56.301Z,10.00
2019-03-30T01:24:26.442Z,9.10
2019-03-30T01:26:59.323Z,9.43
2019-03-30T01:29:29.359Z,10.20
2019-03-30T01:32:00.511Z,9.77
2019-03-30T01:34:31.879Z,10.00
2019-03-30T01:37:03.226Z,9.20
2019-03-30T01:39:33.854Z,10.27
2019-03-30T01:42:04.270Z,10.40
2019-03-30T01:44:37.371Z,9.90
2019-03-30T01:47:07.408Z,9.77
2019-03-30T01:49:39.462Z,9.13
2019-03-30T01:52:09.652Z,9.17
2019-03-30T01:54:39.970Z,8.30
2019-03-30T01:57:10.456Z,9.40
2019-03-30T01:59:40.568Z,9.70
2019-03-30T02:02:11.050Z,10.00
2019-03-30T02:04:41.250Z,8.80
2019-03-30T02:07:14.077Z,9.60
2019-03-30T02:09:44.451Z,8.67
2019-03-30T02:12:17.566Z,10.17
2019-03-30T02:14:47.901Z,9.03
2019-03-30T02:17:20.103Z,9.37
2019-03-30T02:19:50.339Z,9.40
2019-03-30T02:22:20.993Z,9.03
2019-03-30T02:24:51.590Z,8.50
2019-03-30T02:27:21.839Z,8.20
2019-03-30T02:29:52.347Z,7.77
2019-03-30T02:32:26.896Z,8.43
2019-03-30T02:34:59.842Z,8.63
2019-03-30T02:37:30.270Z,9.27
2019-03-30T02:40:00.556Z,8.50
2019-03-30T02:42:33.822Z,9.30
2019-03-30T02:45:07.083Z,8.20
2019-03-30T02:47:37.226Z,8.90
2019-03-30T02:50:09.125Z,9.40
2019-03-30T02:52:39.290Z,8.37
2019-03-30T02:55:12.564Z,8.20
2019-03-30T02:57:41.706Z,7.90
2019-03-30T03:00:17.436Z,11.53
2019-03-30T03:02:49.675Z,8.63
2019-03-30T03:05:20.918Z,7.63
2019-03-30T03:07:51.000Z,7.80
2019-03-30T03:10:22.854Z,8.30
2019-03-30T03:12:53.263Z,8.50
2019-03-30T03:15:23.273Z,8.80
2019-03-30T03:17:53.671Z,8.10
2019-03-30T03:20:24.244Z,8.10
2019-03-30T03:22:57.394Z,8.20
2019-03-30T03:25:27.880Z,8.47
2019-03-30T03:27:58.073Z,7.37
2019-03-30T03:30:28.061Z,9.70
2019-03-30T03:32:58.225Z,7.73
2019-03-30T03:35:31.022Z,8.30
2019-03-30T03:38:01.411Z,7.90
2019-03-30T03:40:31.489Z,7.23
2019-03-30T03:43:01.589Z,7.63
2019-03-30T03:45:36.115Z,7.50
2019-03-30T03:48:06.261Z,7.60
2019-03-30T03:50:46.875Z,7.70
2019-03-30T03:53:18.635Z,8.50
2019-03-30T03:55:48.888Z,7.50
2019-03-30T03:58:20.917Z,7.50
2019-03-30T04:00:54.129Z,8.03
2019-03-30T04:03:26.701Z,8.60
2019-03-30T04:05:59.296Z,7.93
2019-03-30T04:08:34.103Z,7.93
2019-03-30T04:11:05.676Z,8.53
2019-03-30T04:13:38.786Z,8.30
2019-03-30T04:16:09.057Z,8.90
2019-03-30T04:18:39.695Z,8.80
2019-03-30T04:21:09.790Z,7.43
2019-03-30T04:23:39.825Z,7.97
2019-03-30T04:26:14.363Z,8.13
2019-03-30T04:28:44.424Z,7.33
2019-03-30T04:31:14.519Z,8.90
2019-03-30T04:33:44.567Z,8.37
2019-03-30T04:36:17.982Z,8.00
2019-03-30T04:38:48.100Z,8.57
2019-03-30T04:41:19.967Z,7.93
2019-03-30T04:43:51.031Z,7.90
2019-03-30T04:46:21.022Z,8.47
2019-03-30T04:48:51.122Z,7.50
2019-03-30T04:51:21.156Z,8.80
2019-03-30T04:53:52.890Z,7.90
2019-03-30T04:56:23.599Z,7.90
2019-03-30T04:58:54.751Z,7.33
2019-03-30T05:01:24.929Z,8.37
2019-03-30T05:03:56.123Z,7.90
2019-03-30T05:06:26.219Z,8.47
2019-03-30T05:08:56.273Z,10.80
2019-03-30T05:11:26.852Z,8.03
2019-03-30T05:13:59.582Z,8.50
2019-03-30T05:16:30.014Z,8.37
2019-03-30T05:19:00.062Z,9.17
2019-03-30T05:21:33.489Z,8.80
2019-03-30T05:24:03.666Z,8.30
2019-03-30T05:26:35.156Z,7.67
2019-03-30T05:29:05.562Z,8.60
2019-03-30T05:31:36.712Z,9.13
2019-03-30T05:34:08.119Z,8.23
2019-03-30T05:36:38.433Z,8.87
2019-03-30T05:39:08.547Z,8.70
2019-03-30T05:41:38.634Z,8.10
2019-03-30T05:44:09.035Z,8.60
2019-03-30T05:46:40.575Z,8.80
2019-03-30T05:49:10.653Z,8.63
2019-03-30T05:51:40.686Z,8.83
2019-03-30T05:54:10.711Z,9.33
2019-03-30T05:56:41.057Z,8.23
2019-03-30T05:59:12.551Z,9.23
2019-03-30T06:01:42.639Z,8.80
2019-03-30T06:04:13.059Z,10.30
2019-03-30T06:06:43.055Z,8.03
2019-03-30T06:09:14.838Z,8.47
2019-03-30T06:11:45.159Z,9.57
2019-03-30T06:14:15.294Z,9.00
2019-03-30T06:16:45.473Z,8.80
2019-03-30T06:19:15.543Z,8.83
2019-03-30T06:21:46.164Z,8.50
2019-03-30T06:24:16.308Z,8.77
2019-03-30T06:26:47.868Z,8.57
2019-03-30T06:29:21.857Z,8.53
2019-03-30T06:31:52.226Z,8.80
2019-03-30T06:34:25.464Z,8.90
2019-03-30T06:36:57.699Z,8.30
2019-03-30T06:39:30.859Z,9.40
2019-03-30T06:42:00.901Z,8.90
2019-03-30T06:44:31.757Z,9.07
2019-03-30T06:47:06.317Z,9.33
2019-03-30T06:49:36.396Z,8.13
2019-03-30T06:52:06.476Z,8.70
2019-03-30T06:54:36.664Z,10.20
2019-03-30T06:57:06.696Z,9.10
2019-03-30T06:59:36.710Z,9.53
2019-03-30T07:02:08.867Z,8.23
2019-03-30T07:04:38.964Z,8.50
2019-03-30T07:07:10.225Z,9.07
2019-03-30T07:09:41.248Z,8.60
2019-03-30T07:12:17.395Z,10.17
2019-03-30T07:14:49.507Z,9.53
2019-03-30T07:17:20.454Z,9.47
2019-03-30T07:19:54.063Z,10.40
2019-03-30T07:22:24.588Z,9.10
2019-03-30T07:24:57.367Z,10.23
2019-03-30T07:27:30.527Z,9.93
2019-03-30T07:30:00.565Z,9.17
2019-03-30T07:32:30.830Z,10.27
2019-03-30T07:35:01.247Z,9.20
2019-03-30T07:37:31.462Z,10.70
2019-03-30T07:40:04.559Z,10.27
2019-03-30T07:42:35.698Z,10.33
2019-03-30T07:45:06.347Z,9.80
2019-03-30T07:47:36.403Z,9.47
2019-03-30T07:50:06.727Z,10.67
2019-03-30T07:52:36.864Z,10.00
2019-03-30T07:55:10.186Z,10.00
2019-03-30T07:57:41.206Z,9.93
2019-03-30T08:00:16.071Z,10.63
2019-03-30T08:02:46.380Z,9.47
2019-03-30T08:05:18.240Z,10.30
2019-03-30T08:07:48.395Z,10.13
2019-03-30T08:10:19.094Z,10.60
2019-03-30T08:12:49.600Z,11.07
2019-03-30T08:15:20.132Z,10.60
2019-03-30T08:17:50.671Z,11.10
2019-03-30T08:20:22.198Z,11.13
2019-03-30T08:22:52.713Z,10.30
2019-03-30T08:25:24.445Z,10.77
2019-03-30T08:27:54.519Z,11.90
2019-03-30T08:30:24.572Z,11.40
2019-03-30T08:32:55.439Z,11.60
2019-03-30T08:35:28.388Z,11.00
2019-03-30T08:37:58.511Z,14.00
2019-03-30T08:40:29.104Z,11.60
2019-03-30T08:42:59.844Z,11.13
2019-03-30T08:45:32.520Z,10.70
2019-03-30T08:48:03.088Z,11.43
2019-03-30T08:50:35.079Z,11.40
2019-03-30T08:53:07.904Z,11.73
2019-03-30T08:55:40.905Z,12.00
2019-03-30T08:58:13.005Z,12.70
2019-03-30T09:00:45.753Z,12.00
2019-03-30T09:03:18.964Z,11.53
2019-03-30T09:05:51.432Z,12.77
2019-03-30T09:08:21.638Z,11.30
2019-03-30T09:10:56.972Z,11.37
2019-03-30T09:13:28.984Z,13.10
2019-03-30T09:15:59.835Z,11.97
2019-03-30T09:18:35.885Z,11.70
2019-03-30T09:21:11.375Z,12.27
2019-03-30T09:23:44.667Z,13.20
2019-03-30T09:26:16.815Z,13.00
2019-03-30T09:28:48.497Z,11.83
2019-03-30T09:31:20.595Z,12.20
2019-03-30T09:33:51.610Z,10.97
2019-03-30T09:36:22.504Z,12.57
2019-03-30T09:38:53.164Z,12.57
2019-03-30T09:41:27.146Z,12.60
2019-03-30T09:43:59.699Z,13.00
2019-03-30T09:46:30.185Z,11.93
2019-03-30T09:49:01.974Z,11.70
2019-03-30T09:51:33.445Z,12.83
2019-03-30T09:54:05.082Z,12.50
2019-03-30T09:56:35.709Z,10.77
2019-03-30T09:59:06.341Z,12.80
2019-03-30T10:01:37.752Z,12.20
2019-03-30T10:04:08.570Z,13.07
2019-03-30T10:06:40.553Z,12.77
2019-03-30T10:09:11.616Z,13.60
2019-03-30T10:11:42.964Z,12.43
2019-03-30T10:14:15.312Z,13.30
2019-03-30T10:16:50.475Z,12.33
2019-03-30T10:19:22.071Z,12.03
2019-03-30T10:21:52.929Z,12.03
2019-03-30T10:24:37.484Z,14.30
2019-03-30T10:26:56.436Z,12.93
2019-03-30T10:29:26.637Z,13.80
2019-03-30T10:32:04.785Z,12.77
2019-03-30T10:34:39.608Z,13.17
2019-03-30T10:37:18.267Z,10.83
2019-03-30T10:39:51.472Z,11.97
2019-03-30T10:42:26.825Z,12.20
2019-03-30T10:44:57.775Z,12.70
2019-03-30T10:47:29.847Z,13.10
2019-03-30T10:50:02.233Z,12.57
2019-03-30T10:52:36.742Z,13.47
2019-03-30T10:55:08.809Z,12.27
2019-03-30T10:57:40.708Z,11.53
2019-03-30T11:00:12.501Z,12.10
2019-03-30T11:02:44.697Z,12.83
2019-03-30T11:05:25.257Z,12.70
2019-03-30T11:07:57.589Z,12.40
2019-03-30T11:10:31.166Z,11.80
2019-03-30T11:13:01.964Z,11.83
2019-03-30T11:15:34.266Z,11.27
2019-03-30T11:18:06.023Z,13.07
2019-03-30T11:20:39.318Z,11.90
2019-03-30T11:23:17.148Z,11.83
2019-03-30T11:25:50.481Z,11.80
2019-03-30T11:28:23.716Z,11.43
2019-03-30T11:30:57.585Z,10.37
2019-03-30T11:33:30.637Z,12.53
2019-03-30T11:36:07.360Z,12.47
2019-03-30T11:38:44.932Z,12.17
2019-03-30T11:41:24.806Z,12.50
2019-03-30T11:43:54.886Z,12.43
2019-03-30T11:46:29.271Z,11.77
2019-03-30T11:49:01.643Z,12.53
2019-03-30T11:51:32.959Z,11.30
2019-03-30T11:54:05.442Z,12.73
2019-03-30T11:56:36.053Z,11.70
2019-03-30T11:59:07.449Z,11.47
2019-03-30T12:01:38.473Z,11.70
2019-03-30T12:04:09.349Z,14.83
2019-03-30T12:06:42.943Z,11.90
2019-03-30T12:09:14.896Z,11.60
2019-03-30T12:11:46.870Z,10.30
2019-03-30T12:14:18.486Z,10.77
2019-03-30T12:16:52.352Z,11.23
2019-03-30T12:19:22.513Z,11.50
2019-03-30T12:21:52.573Z,10.17
2019-03-30T12:24:22.730Z,10.47
2019-03-30T12:26:55.685Z,10.47
2019-03-30T12:29:26.196Z,9.67
2019-03-30T12:31:59.050Z,9.33
2019-03-30T12:34:29.266Z,10.67
2019-03-30T12:37:00.859Z,9.97
2019-03-30T12:39:31.142Z,8.73
2019-03-30T12:42:01.567Z,8.90
2019-03-30T12:44:32.190Z,9.80
2019-03-30T12:47:03.652Z,9.80
2019-03-30T12:49:34.688Z,9.10
2019-03-30T12:52:06.060Z,10.67
2019-03-30T12:54:39.112Z,9.13
2019-03-30T12:57:10.477Z,8.63
2019-03-30T12:59:41.556Z,8.80
2019-03-30T13:02:13.079Z,9.00
2019-03-30T13:04:45.074Z,8.53
2019-03-30T13:07:19.659Z,8.70
2019-03-30T13:09:49.773Z,8.40
2019-03-30T13:12:20.305Z,10.23
2019-03-30T13:14:50.533Z,7.90
2019-03-30T13:17:23.691Z,6.80
2019-03-30T13:20:00.879Z,8.43
2019-03-30T13:22:33.884Z,9.23
2019-03-30T13:25:07.991Z,7.60
2019-03-30T13:27:38.954Z,10.13
2019-03-30T13:30:12.665Z,7.03
2019-03-30T13:32:43.339Z,6.33
2019-03-30T13:35:13.995Z,5.47
2019-03-30T13:37:45.462Z,6.83
2019-03-30T13:40:16.305Z,7.87
2019-03-30T13:42:47.551Z,7.67
2019-03-30T13:45:17.838Z,7.33
2019-03-30T13:47:49.422Z,6.93
2019-03-30T13:50:19.602Z,6.70
2019-03-30T13:52:49.891Z,7.07
2019-03-30T13:55:22.825Z,7.00
2019-03-30T13:57:54.028Z,6.90
2019-03-30T14:00:24.580Z,12.00
2019-03-30T14:02:55.128Z,7.60
2019-03-30T14:05:25.338Z,7.20
2019-03-30T14:07:55.418Z,7.67
2019-03-30T14:10:25.518Z,7.37
2019-03-30T14:12:55.587Z,8.40
2019-03-30T14:15:25.609Z,6.93
2019-03-30T14:17:55.930Z,7.07
2019-03-30T14:20:29.211Z,6.80
2019-03-30T14:23:01.127Z,7.43
2019-03-30T14:25:32.301Z,7.90
2019-03-30T14:28:03.067Z,6.60
2019-03-30T14:30:33.327Z,7.43
2019-03-30T14:33:03.428Z,8.20
2019-03-30T14:35:34.131Z,6.70
2019-03-30T14:38:04.490Z,8.00
2019-03-30T14:40:34.711Z,9.90
2019-03-30T14:43:05.159Z,7.43
2019-03-30T14:45:35.394Z,9.20
2019-03-30T14:48:05.644Z,8.53
2019-03-30T14:50:37.587Z,8.20
2019-03-30T14:53:08.091Z,9.40
2019-03-30T14:55:39.697Z,8.40
2019-03-30T14:58:11.338Z,7.70
2019-03-30T15:00:42.809Z,9.10
2019-03-30T15:03:14.781Z,7.27
2019-03-30T15:05:45.970Z,8.33
2019-03-30T15:08:17.797Z,8.40
2019-03-30T15:10:48.232Z,8.30
2019-03-30T15:13:20.119Z,8.13
2019-03-30T15:15:53.322Z,7.93
2019-03-30T15:18:23.499Z,8.43
2019-03-30T15:20:53.593Z,9.80
2019-03-30T15:23:27.171Z,8.23
2019-03-30T15:25:57.369Z,7.77
2019-03-30T15:28:27.406Z,7.17
2019-03-30T15:30:57.763Z,7.30
2019-03-30T15:33:27.831Z,6.30
2019-03-30T15:35:57.915Z,6.80
2019-03-30T15:38:28.171Z,6.80
2019-03-30T15:41:01.392Z,6.53
2019-03-30T15:43:38.657Z,6.00
2019-03-30T15:46:07.030Z,6.73
2019-03-30T15:48:38.332Z,7.10
2019-03-30T15:51:09.588Z,6.77
2019-03-30T15:53:39.741Z,6.63
2019-03-30T15:56:09.955Z,6.27
2019-03-30T15:58:40.530Z,6.80
2019-03-30T16:01:10.582Z,6.70
2019-03-30T16:03:43.511Z,6.47
2019-03-30T16:06:14.285Z,7.00
2019-03-30T16:08:44.475Z,6.03
2019-03-30T16:11:14.725Z,6.00
2019-03-30T16:13:45.389Z,4.93
2019-03-30T16:16:15.587Z,6.37
2019-03-30T16:18:45.598Z,5.60
2019-03-30T16:21:16.359Z,6.33
2019-03-30T16:23:46.423Z,6.17
2019-03-30T16:26:16.595Z,5.43
2019-03-30T16:28:46.775Z,7.40
2019-03-30T16:31:18.470Z,6.50
2019-03-30T16:33:48.486Z,5.47
2019-03-30T16:36:22.701Z,8.23
2019-03-30T16:38:57.324Z,5.93
2019-03-30T16:41:28.236Z,6.37
2019-03-30T16:43:59.463Z,5.03
2019-03-30T16:46:29.894Z,5.50
2019-03-30T16:49:01.194Z,5.40
2019-03-30T16:51:31.375Z,5.73
2019-03-30T16:54:01.534Z,5.00
2019-03-30T16:56:31.602Z,4.43
2019-03-30T16:59:05.524Z,4.93
2019-03-30T17:01:35.899Z,4.47
2019-03-30T17:04:06.308Z,4.57
2019-03-30T17:06:36.423Z,4.70
2019-03-30T17:09:08.301Z,5.50
2019-03-30T17:11:38.448Z,4.53
2019-03-30T17:14:10.490Z,5.03
2019-03-30T17:16:40.606Z,4.87
2019-03-30T17:19:10.733Z,5.07
2019-03-30T17:21:42.677Z,6.90
2019-03-30T17:24:16.250Z,4.97
2019-03-30T17:26:46.732Z,4.60
2019-03-30T17:29:21.069Z,5.40
2019-03-30T17:31:51.229Z,5.90
2019-03-30T17:34:21.428Z,5.27
2019-03-30T17:36:52.982Z,6.43
2019-03-30T17:39:29.292Z,8.20
2019-03-30T17:41:59.564Z,5.80
2019-03-30T17:44:33.845Z,5.20
2019-03-30T17:47:06.889Z,5.77
2019-03-30T17:49:37.413Z,5.33
2019-03-30T17:52:08.814Z,5.77
2019-03-30T17:54:39.981Z,5.93
2019-03-30T17:57:11.467Z,6.43
2019-03-30T17:59:41.595Z,8.37
2019-03-30T18:02:11.866Z,7.10
2019-03-30T18:04:42.060Z,7.97
2019-03-30T18:07:13.884Z,8.90
2019-03-30T18:09:44.421Z,8.07
2019-03-30T18:12:20.374Z,7.77
2019-03-30T18:14:49.534Z,8.73
2019-03-30T18:17:19.875Z,8.60
2019-03-30T18:19:50.696Z,8.37
2019-03-30T18:22:20.865Z,8.10
2019-03-30T18:24:51.101Z,7.93
2019-03-30T18:27:22.525Z,7.10
2019-03-30T18:29:53.077Z,6.93
2019-03-30T18:32:25.093Z,7.03
2019-03-30T18:34:54.554Z,8.00
2019-03-30T18:37:27.792Z,12.20
2019-03-30T18:39:58.802Z,9.07
2019-03-30T18:42:29.207Z,7.60
2019-03-30T18:45:03.775Z,7.90
2019-03-30T18:47:34.555Z,9.23
2019-03-30T18:50:06.191Z,7.97
2019-03-30T18:52:37.674Z,10.63
2019-03-30T18:55:08.028Z,8.03
2019-03-30T18:57:38.351Z,8.30
2019-03-30T19:00:09.101Z,13.00
2019-03-30T19:02:39.305Z,8.17
2019-03-30T19:05:09.486Z,8.07
2019-03-30T19:07:39.843Z,8.20
2019-03-30T19:10:10.433Z,8.03
2019-03-30T19:12:40.652Z,8.40
2019-03-30T19:15:11.161Z,9.17
2019-03-30T19:17:41.321Z,8.20
2019-03-30T19:20:12.345Z,8.97
2019-03-30T19:22:42.778Z,8.70
2019-03-30T19:25:16.279Z,9.20
2019-03-30T19:27:46.621Z,10.30
2019-03-30T19:30:20.688Z,9.17
2019-03-30T19:32:51.052Z,9.00
2019-03-30T19:35:22.608Z,8.80
2019-03-30T19:37:53.819Z,9.20
2019-03-30T19:40:25.653Z,9.90
2019-03-30T19:42:56.238Z,8.97
2019-03-30T19:45:26.440Z,10.13
2019-03-30T19:47:57.702Z,10.13
2019-03-30T19:50:29.243Z,10.90
2019-03-30T19:52:59.331Z,9.73
2019-03-30T19:55:29.564Z,10.20
2019-03-30T19:58:03.827Z,9.87
2019-03-30T20:00:33.985Z,11.23
2019-03-30T20:03:04.264Z,10.53
2019-03-30T20:05:35.592Z,11.87
2019-03-30T20:08:11.898Z,10.30
2019-03-30T20:10:38.473Z,10.87
2019-03-30T20:13:09.331Z,9.90
2019-03-30T20:15:40.256Z,10.30
2019-03-30T20:18:10.958Z,9.70
2019-03-30T20:20:41.419Z,9.27
2019-03-30T20:23:12.643Z,13.20
2019-03-30T20:25:42.841Z,10.30
2019-03-30T20:28:13.226Z,11.80
2019-03-30T20:30:43.297Z,10.70
2019-03-30T20:33:13.529Z,9.70
2019-03-30T20:35:44.131Z,9.50
2019-03-30T20:38:19.270Z,10.50
2019-03-30T20:40:49.590Z,10.00
2019-03-30T20:43:22.819Z,9.17
2019-03-30T20:45:53.007Z,9.27
2019-03-30T20:48:23.361Z,9.77
2019-03-30T20:50:53.785Z,9.43
2019-03-30T20:53:27.322Z,10.03
2019-03-30T20:56:00.557Z,9.27
2019-03-30T20:58:32.781Z,10.23
2019-03-30T21:01:02.934Z,9.63
2019-03-30T21:03:34.954Z,9.77
2019-03-30T21:06:05.597Z,10.23
2019-03-30T21:08:37.059Z,10.13
2019-03-30T21:11:08.568Z,9.20
2019-03-30T21:13:40.264Z,8.43
2019-03-30T21:16:10.540Z,9.67
2019-03-30T21:18:40.940Z,9.77
2019-03-30T21:21:11.727Z,8.70
2019-03-30T21:23:42.006Z,8.27
2019-03-30T21:26:12.479Z,8.57
2019-03-30T21:28:42.930Z,10.37
2019-03-30T21:31:14.147Z,7.60
2019-03-30T21:33:44.259Z,8.90
2019-03-30T21:36:14.756Z,9.23
2019-03-30T21:38:44.781Z,9.57
2019-03-30T21:41:17.827Z,9.37
2019-03-30T21:43:48.014Z,9.50
2019-03-30T21:46:18.063Z,9.87
2019-03-30T21:48:52.946Z,9.50
2019-03-30T21:51:26.206Z,9.53
2019-03-30T21:53:56.268Z,9.23
2019-03-30T21:56:26.647Z,9.33
2019-03-30T21:58:59.966Z,14.37
2019-03-30T22:01:30.211Z,11.03
2019-03-30T22:04:01.989Z,10.50
2019-03-30T22:06:32.551Z,10.17
2019-03-30T22:09:06.901Z,10.63
2019-03-30T22:11:37.116Z,11.10
2019-03-30T22:14:07.257Z,11.43
2019-03-30T22:16:38.918Z,10.97
2019-03-30T22:19:08.989Z,11.50
2019-03-30T22:21:39.331Z,10.47
2019-03-30T22:24:09.609Z,11.53
2019-03-30T22:26:41.923Z,11.50
2019-03-30T22:29:13.737Z,11.30
2019-03-30T22:31:44.568Z,11.67
2019-03-30T22:34:14.998Z,11.83
2019-03-30T22:36:45.427Z,11.60
2019-03-30T22:39:15.557Z,10.17
2019-03-30T22:41:45.659Z,11.50
2019-03-30T22:44:20.411Z,10.83
2019-03-30T22:46:50.518Z,10.60
2019-03-30T22:49:21.249Z,12.20
2019-03-30T22:51:51.979Z,12.00
2019-03-30T22:54:22.048Z,11.10
2019-03-30T22:56:55.264Z,10.77
2019-03-30T22:59:25.313Z,11.40
2019-03-30T23:01:55.646Z,12.30
2019-03-30T23:04:26.184Z,11.30
2019-03-30T23:06:58.542Z,10.60
2019-03-30T23:09:28.824Z,11.90
2019-03-30T23:12:01.784Z,11.50
2019-03-30T23:14:34.643Z,10.77
2019-03-30T23:17:08.338Z,9.77
2019-03-30T23:19:38.449Z,10.27
2019-03-30T23:22:08.580Z,11.17
2019-03-30T23:24:42.178Z,10.00
2019-03-30T23:27:12.450Z,10.00
2019-03-30T23:29:42.546Z,10.83
2019-03-30T23:32:15.914Z,10.17
2019-03-30T23:34:48.150Z,12.93
2019-03-30T23:37:19.511Z,11.73
2019-03-30T23:39:49.569Z,12.00
2019-03-30T23:42:20.181Z,12.67
2019-03-30T23:44:50.334Z,11.20
2019-03-30T23:47:20.592Z,10.53
2019-03-30T23:49:51.517Z,10.40
2019-03-30T23:52:22.165Z,11.40
2019-03-30T23:54:56.081Z,11.53
2019-03-30T23:57:26.187Z,9.80
2019-03-30T23:59:56.291Z,10.77
